createdAt,value
2022-12-04T00:01:19.902Z,10.73
2022-12-04T00:03:47.255Z,10.20
2022-12-04T00:06:20.950Z,11.95
2022-12-04T00:08:48.792Z,12.23
2022-12-04T00:11:20.928Z,10.75
2022-12-04T00:13:47.720Z,10.90
2022-12-04T00:16:21.097Z,14.25
2022-12-04T00:18:48.211Z,10.73
2022-12-04T00:21:17.036Z,10.35
2022-12-04T00:23:45.048Z,10.80
2022-12-04T00:26:21.866Z,11.68
2022-12-04T00:28:51.951Z,10.68
2022-12-04T00:31:21.733Z,11.02
2022-12-04T00:33:51.939Z,9.98
2022-12-04T00:36:23.998Z,10.10
2022-12-04T00:38:53.846Z,11.35
2022-12-04T00:41:24.918Z,10.02
2022-12-04T00:43:52.768Z,11.52
2022-12-04T00:46:20.200Z,10.48
2022-12-04T00:48:47.649Z,9.68
2022-12-04T00:51:20.763Z,11.83
2022-12-04T00:53:47.785Z,10.73
2022-12-04T00:56:22.851Z,13.10
2022-12-04T00:59:01.321Z,11.00
2022-12-04T01:01:28.847Z,11.05
2022-12-04T01:03:56.189Z,10.80
2022-12-04T01:06:31.910Z,11.13
2022-12-04T01:09:00.753Z,11.60
2022-12-04T01:11:29.503Z,10.60
2022-12-04T01:13:56.941Z,11.43
2022-12-04T01:16:27.572Z,11.30
2022-12-04T01:18:54.893Z,11.48
2022-12-04T01:21:24.823Z,11.00
2022-12-04T01:23:51.803Z,11.00
2022-12-04T01:26:18.914Z,10.10
2022-12-04T01:28:46.159Z,10.52
2022-12-04T01:31:18.007Z,10.75
2022-12-04T01:33:45.422Z,9.50
2022-12-04T01:36:15.970Z,9.80
2022-12-04T01:38:43.530Z,10.82
2022-12-04T01:41:14.908Z,10.07
2022-12-04T01:43:42.114Z,10.45
2022-12-04T01:46:10.164Z,10.45
2022-12-04T01:51:27.307Z,10.88
2022-12-04T01:53:59.356Z,10.27
2022-12-04T01:56:34.308Z,10.77
2022-12-04T01:59:02.854Z,12.07
2022-12-04T02:01:38.264Z,10.52
2022-12-04T02:04:06.028Z,11.30
2022-12-04T02:06:33.299Z,11.18
2022-12-04T02:09:00.482Z,11.77
2022-12-04T02:11:55.475Z,10.47
2022-12-04T02:14:43.710Z,10.05
2022-12-04T02:17:31.875Z,10.45
2022-12-04T02:20:10.077Z,9.93
2022-12-04T02:23:17.123Z,11.77
2022-12-04T02:25:48.070Z,10.95
2022-12-04T02:28:32.424Z,10.52
2022-12-04T02:31:02.653Z,10.98
2022-12-04T02:33:45.715Z,11.05
2022-12-04T02:36:27.685Z,10.68
2022-12-04T02:39:28.251Z,10.65
2022-12-04T02:42:05.711Z,9.95
2022-12-04T02:44:52.775Z,12.18
2022-12-04T02:47:24.106Z,9.57
2022-12-04T02:49:57.178Z,10.65
2022-12-04T02:52:31.946Z,10.68
2022-12-04T02:55:08.370Z,11.10
2022-12-04T02:57:41.988Z,10.65
2022-12-04T03:00:12.801Z,12.27
2022-12-04T03:02:54.498Z,12.13
2022-12-04T03:05:34.880Z,10.93
2022-12-04T03:08:08.586Z,9.90
2022-12-04T03:10:40.628Z,9.88
2022-12-04T03:13:23.198Z,10.68
2022-12-04T03:15:50.214Z,11.23
2022-12-04T03:18:24.086Z,11.38
2022-12-04T03:21:00.139Z,10.63
2022-12-04T03:23:35.093Z,9.75
2022-12-04T03:26:10.522Z,11.13
2022-12-04T03:28:53.349Z,10.52
2022-12-04T03:31:30.236Z,10.00
2022-12-04T03:34:02.388Z,10.93
2022-12-04T03:36:53.761Z,11.52
2022-12-04T03:39:38.923Z,11.93
2022-12-04T03:42:15.386Z,11.02
2022-12-04T03:44:48.997Z,10.75
2022-12-04T03:47:28.716Z,12.10
2022-12-04T03:50:09.622Z,10.43
2022-12-04T03:52:58.013Z,11.32
2022-12-04T03:55:34.738Z,12.35
2022-12-04T03:58:08.364Z,10.82
2022-12-04T04:00:40.605Z,11.15
2022-12-04T04:03:19.624Z,10.52
2022-12-04T04:05:49.397Z,10.65
2022-12-04T04:08:31.059Z,10.35
2022-12-04T04:11:29.654Z,10.57
2022-12-04T04:14:17.479Z,10.75
2022-12-04T04:19:55.316Z,12.73
2022-12-04T04:22:44.095Z,10.75
2022-12-04T04:25:25.377Z,10.75
2022-12-04T04:27:58.795Z,10.23
2022-12-04T04:30:32.268Z,10.13
2022-12-04T04:33:17.301Z,10.63
2022-12-04T04:35:53.170Z,10.95
2022-12-04T04:38:20.110Z,10.85
2022-12-04T04:40:58.689Z,12.63
2022-12-04T04:43:34.609Z,10.75
2022-12-04T04:46:17.729Z,11.25
2022-12-04T04:48:52.790Z,12.63
2022-12-04T04:51:21.323Z,10.55
2022-12-04T04:53:52.344Z,12.95
2022-12-04T04:56:21.915Z,10.85
2022-12-04T04:58:49.314Z,11.43
2022-12-04T05:01:22.436Z,12.30
2022-12-04T05:03:50.079Z,10.77
2022-12-04T05:06:16.925Z,11.77
2022-12-04T05:08:44.415Z,11.65
2022-12-04T05:11:16.967Z,10.55
2022-12-04T05:13:43.857Z,10.63
2022-12-04T05:16:16.519Z,11.55
2022-12-04T05:19:02.715Z,10.40
2022-12-04T05:21:30.364Z,11.30
2022-12-04T05:24:03.075Z,10.15
2022-12-04T05:26:30.059Z,12.05
2022-12-04T05:29:01.772Z,10.90
2022-12-04T05:31:31.280Z,11.05
2022-12-04T05:34:01.004Z,10.85
2022-12-04T05:36:32.788Z,10.32
2022-12-04T05:39:00.159Z,10.75
2022-12-04T05:41:27.548Z,10.77
2022-12-04T05:43:54.760Z,10.35
2022-12-04T05:46:21.808Z,9.95
2022-12-04T05:48:51.080Z,10.38
2022-12-04T05:51:18.445Z,11.15
2022-12-04T05:53:46.072Z,10.70
2022-12-04T05:56:16.723Z,10.43
2022-12-04T05:58:43.650Z,11.63
2022-12-04T06:01:17.790Z,10.30
2022-12-04T06:03:45.366Z,10.50
2022-12-04T06:06:21.788Z,10.82
2022-12-04T06:08:55.311Z,9.97
2022-12-04T06:11:26.107Z,11.10
2022-12-04T06:13:53.545Z,10.02
2022-12-04T06:16:42.069Z,11.55
2022-12-04T06:19:16.304Z,10.10
2022-12-04T06:21:46.291Z,10.88
2022-12-04T06:24:16.213Z,10.82
2022-12-04T06:27:18.796Z,10.98
2022-12-04T06:29:35.997Z,10.98
2022-12-04T06:32:03.467Z,9.82
2022-12-04T06:34:30.804Z,11.65
2022-12-04T06:36:58.032Z,11.27
2022-12-04T06:39:24.942Z,10.52
2022-12-04T06:41:52.123Z,10.38
2022-12-04T06:44:19.270Z,12.70
2022-12-04T06:46:47.374Z,9.80
2022-12-04T06:49:17.813Z,11.75
2022-12-04T06:51:46.879Z,11.95
2022-12-04T06:54:14.119Z,10.18
2022-12-04T06:56:41.312Z,12.40
2022-12-04T06:59:13.555Z,10.77
2022-12-04T07:01:43.339Z,10.70
2022-12-04T07:04:10.171Z,12.43
2022-12-04T07:06:40.279Z,10.55
2022-12-04T07:09:13.784Z,10.13
2022-12-04T07:11:46.266Z,9.75
2022-12-04T07:14:13.959Z,10.30
2022-12-04T07:16:44.214Z,12.15
2022-12-04T07:19:14.681Z,10.52
2022-12-04T07:21:42.689Z,11.65
2022-12-04T07:24:16.340Z,10.52
2022-12-04T07:26:44.421Z,11.93
2022-12-04T07:29:11.444Z,10.63
2022-12-04T07:31:38.755Z,12.32
2022-12-04T07:34:05.968Z,10.73
2022-12-04T07:36:35.299Z,10.35
2022-12-04T07:39:05.549Z,13.68
2022-12-04T07:41:32.532Z,11.00
2022-12-04T07:43:59.715Z,10.18
2022-12-04T07:46:28.381Z,12.15
2022-12-04T07:48:58.633Z,10.23
2022-12-04T07:51:29.355Z,10.60
2022-12-04T07:54:03.605Z,11.38
2022-12-04T07:56:33.954Z,10.48
2022-12-04T07:59:00.866Z,10.60
2022-12-04T08:01:28.083Z,11.20
2022-12-04T08:03:57.485Z,10.23
2022-12-04T08:06:27.440Z,10.60
2022-12-04T08:08:55.501Z,10.95
2022-12-04T08:11:25.433Z,10.93
2022-12-04T08:14:01.000Z,11.50
2022-12-04T08:16:29.771Z,11.57
2022-12-04T08:18:57.321Z,10.80
2022-12-04T08:21:30.353Z,11.15
2022-12-04T08:24:00.281Z,11.00
2022-12-04T08:26:29.694Z,11.07
2022-12-04T08:29:03.398Z,10.90
2022-12-04T08:31:33.266Z,10.68
2022-12-04T08:34:04.550Z,12.20
2022-12-04T08:36:32.326Z,11.85
2022-12-04T08:39:02.457Z,10.38
2022-12-04T08:41:29.935Z,12.10
2022-12-04T08:43:58.060Z,11.00
2022-12-04T08:51:25.307Z,12.75
2022-12-04T08:53:57.490Z,13.20
2022-12-04T08:56:28.839Z,11.43
2022-12-04T08:58:57.698Z,11.13
2022-12-04T09:01:26.165Z,11.80
2022-12-04T09:03:53.567Z,11.45
2022-12-04T09:06:21.634Z,11.32
2022-12-04T09:08:48.837Z,11.80
2022-12-04T09:11:21.562Z,11.57
2022-12-04T09:13:49.204Z,11.85
2022-12-04T09:16:22.215Z,12.07
2022-12-04T09:18:50.118Z,10.73
2022-12-04T09:21:24.516Z,11.85
2022-12-04T09:23:55.238Z,12.65
2022-12-04T09:26:36.527Z,10.85
2022-12-04T09:29:07.982Z,11.20
2022-12-04T09:31:35.349Z,12.02
2022-12-04T09:34:03.168Z,12.45
2022-12-04T09:36:32.947Z,11.43
2022-12-04T09:39:03.064Z,12.40
2022-12-04T09:41:47.947Z,13.77
2022-12-04T09:44:28.661Z,11.80
2022-12-04T09:47:33.741Z,11.23
2022-12-04T09:50:07.044Z,11.30
2022-12-04T09:52:48.376Z,12.02
2022-12-04T09:55:27.405Z,11.77
2022-12-04T09:58:01.973Z,12.52
2022-12-04T10:00:31.044Z,10.48
2022-12-04T10:03:03.679Z,11.02
2022-12-04T10:05:40.098Z,11.10
2022-12-04T10:08:19.518Z,12.15
2022-12-04T10:11:14.242Z,10.77
2022-12-04T10:14:02.180Z,11.27
2022-12-04T10:19:20.225Z,10.60
2022-12-04T10:22:13.996Z,12.55
2022-12-04T10:24:49.590Z,10.77
2022-12-04T10:27:42.986Z,12.65
2022-12-04T10:30:29.683Z,10.60
2022-12-04T10:33:05.589Z,11.18
2022-12-04T10:35:37.909Z,11.55
2022-12-04T10:38:13.970Z,12.18
2022-12-04T10:40:49.023Z,12.32
2022-12-04T10:43:31.669Z,10.98
2022-12-04T10:45:59.199Z,10.80
2022-12-04T10:48:38.921Z,11.48
2022-12-04T10:51:06.308Z,11.00
2022-12-04T10:53:37.339Z,12.03
2022-12-04T10:56:19.137Z,11.63
2022-12-04T10:59:16.191Z,10.32
2022-12-04T11:01:43.262Z,11.07
2022-12-04T11:04:27.599Z,10.63
2022-12-04T11:07:15.465Z,10.93
2022-12-04T11:12:23.443Z,11.00
2022-12-04T11:15:08.530Z,11.85
2022-12-04T11:17:35.440Z,9.77
2022-12-04T11:20:09.426Z,12.38
2022-12-04T11:22:52.755Z,11.02
2022-12-04T11:25:24.567Z,9.82
2022-12-04T11:27:55.365Z,10.45
2022-12-04T11:30:32.561Z,12.30
2022-12-04T11:33:00.586Z,10.17
2022-12-04T11:35:29.732Z,10.35
2022-12-04T11:38:08.809Z,10.65
2022-12-04T11:40:37.312Z,9.95
2022-12-04T11:43:16.332Z,10.35
2022-12-04T11:45:55.251Z,10.32
2022-12-04T11:48:23.001Z,10.68
2022-12-04T11:51:08.583Z,10.50
2022-12-04T11:53:58.140Z,10.25
2022-12-04T11:56:27.579Z,9.93
2022-12-04T11:59:05.982Z,11.07
2022-12-04T12:01:58.212Z,10.27
2022-12-04T12:04:35.069Z,10.00
2022-12-04T12:07:23.140Z,10.10
2022-12-04T12:10:30.724Z,10.40
2022-12-04T12:13:18.813Z,9.82
2022-12-04T12:15:48.839Z,10.00
2022-12-04T12:18:39.663Z,9.90
2022-12-04T12:21:20.153Z,10.60
2022-12-04T12:24:20.763Z,9.30
2022-12-04T12:27:06.834Z,9.93
2022-12-04T12:30:09.116Z,11.07
2022-12-04T12:33:03.751Z,9.52
2022-12-04T12:35:36.003Z,9.73
2022-12-04T12:38:10.454Z,10.40
2022-12-04T12:40:49.711Z,9.75
2022-12-04T12:43:37.717Z,9.20
2022-12-04T12:46:31.310Z,9.48
2022-12-04T12:49:14.787Z,10.45
2022-12-04T12:52:00.170Z,10.38
2022-12-04T12:54:40.433Z,9.35
2022-12-04T12:57:27.094Z,9.07
2022-12-04T13:00:24.479Z,10.55
2022-12-04T13:03:03.985Z,9.20
2022-12-04T13:05:37.478Z,9.80
2022-12-04T13:08:25.645Z,20.90
2022-12-04T13:11:21.918Z,14.98
2022-12-04T13:13:53.412Z,13.48
2022-12-04T13:16:27.607Z,14.82
2022-12-04T13:19:28.523Z,25.70
2022-12-04T13:22:16.612Z,10.40
2022-12-04T13:25:05.735Z,18.77
2022-12-04T13:28:03.942Z,19.30
2022-12-04T13:30:44.710Z,19.08
2022-12-04T13:33:29.858Z,12.00
2022-12-04T13:36:21.738Z,23.05
2022-12-04T13:38:57.736Z,17.35
2022-12-04T13:41:27.840Z,19.10
2022-12-04T13:43:56.661Z,14.20
2022-12-04T13:46:38.277Z,13.95
2022-12-04T13:49:38.090Z,15.05
2022-12-04T13:52:21.293Z,12.27
2022-12-04T13:55:00.973Z,17.52
2022-12-04T13:57:28.380Z,13.73
2022-12-04T14:00:08.921Z,14.57
2022-12-04T14:02:37.994Z,21.05
2022-12-04T14:05:11.798Z,28.65
2022-12-04T14:07:42.604Z,20.52
2022-12-04T14:10:34.840Z,24.08
2022-12-04T14:13:22.098Z,23.02
2022-12-04T14:15:49.902Z,23.40
2022-12-04T14:18:27.799Z,26.52
2022-12-04T14:21:00.855Z,29.67
2022-12-04T14:23:42.137Z,36.47
2022-12-04T14:29:27.989Z,31.63
2022-12-04T14:31:58.409Z,27.38
2022-12-04T14:34:32.681Z,30.75
2022-12-04T14:37:02.247Z,26.85
2022-12-04T14:39:38.056Z,21.70
2022-12-04T14:42:23.333Z,23.13
2022-12-04T14:45:01.031Z,23.15
2022-12-04T14:47:40.260Z,22.70
2022-12-04T14:50:42.458Z,27.73
2022-12-04T14:53:09.427Z,25.02
2022-12-04T14:56:07.645Z,23.25
2022-12-04T14:58:39.552Z,19.75
2022-12-04T15:01:28.673Z,19.58
2022-12-04T15:04:00.219Z,20.10
2022-12-04T15:06:33.619Z,20.98
2022-12-04T15:09:23.286Z,27.48
2022-12-04T15:12:13.908Z,26.15
2022-12-04T15:14:41.278Z,30.13
2022-12-04T15:17:13.093Z,20.70
2022-12-04T15:19:41.040Z,24.20
2022-12-04T15:22:26.633Z,28.67
2022-12-04T15:24:55.458Z,20.65
2022-12-04T15:27:32.063Z,24.08
2022-12-04T15:30:01.763Z,27.23
2022-12-04T15:32:30.819Z,35.10
2022-12-04T15:35:09.800Z,30.65
2022-12-04T15:37:36.957Z,32.67
2022-12-04T15:40:09.927Z,34.67
2022-12-04T15:42:36.884Z,29.73
2022-12-04T15:45:12.145Z,25.52
2022-12-04T15:47:54.769Z,27.13
2022-12-04T15:50:28.106Z,40.63
2022-12-04T15:53:07.283Z,39.05
2022-12-04T15:55:40.567Z,33.03
2022-12-04T15:58:19.701Z,35.08
2022-12-04T16:00:47.565Z,32.53
2022-12-04T16:03:28.292Z,25.05
2022-12-04T16:06:05.831Z,31.35
2022-12-04T16:08:36.027Z,34.47
2022-12-04T16:11:22.141Z,22.25
2022-12-04T16:14:10.716Z,29.50
2022-12-04T16:16:44.539Z,30.13
2022-12-04T16:19:25.042Z,23.63
2022-12-04T16:21:52.149Z,29.40
2022-12-04T16:24:19.179Z,22.90
2022-12-04T16:26:46.402Z,27.63
2022-12-04T16:29:13.352Z,20.83
2022-12-04T16:31:43.337Z,22.75
2022-12-04T16:34:13.420Z,24.38
2022-12-04T16:36:41.392Z,17.50
2022-12-04T16:39:08.653Z,21.80
2022-12-04T16:41:36.041Z,20.03
2022-12-04T16:44:03.441Z,25.00
2022-12-04T16:46:31.014Z,20.85
2022-12-04T16:49:07.042Z,17.30
2022-12-04T16:51:37.700Z,23.83
2022-12-04T16:54:07.500Z,18.15
2022-12-04T16:56:34.325Z,21.13
2022-12-04T16:59:05.569Z,23.10
2022-12-04T17:01:46.039Z,18.90
2022-12-04T17:04:13.115Z,17.70
2022-12-04T17:06:43.675Z,15.55
2022-12-04T17:09:11.594Z,15.85
2022-12-04T17:11:38.932Z,13.65
2022-12-04T17:14:09.267Z,15.17
2022-12-04T17:16:47.204Z,15.43
2022-12-04T17:21:42.111Z,14.85
2022-12-04T17:24:09.941Z,17.17
2022-12-04T17:26:36.855Z,23.17
2022-12-04T17:29:04.338Z,13.57
2022-12-04T17:31:31.327Z,15.55
2022-12-04T17:33:58.427Z,12.70
2022-12-04T17:36:28.152Z,15.18
2022-12-04T17:39:02.390Z,14.73
2022-12-04T17:41:29.970Z,15.32
2022-12-04T17:43:59.594Z,16.63
2022-12-04T17:46:26.624Z,14.00
2022-12-04T17:49:02.639Z,15.02
2022-12-04T17:51:36.203Z,13.27
2022-12-04T17:54:04.542Z,17.80
2022-12-04T17:56:34.256Z,12.93
2022-12-04T17:59:01.164Z,14.95
2022-12-04T18:01:29.361Z,15.65
2022-12-04T18:06:30.452Z,12.68
2022-12-04T18:11:27.350Z,17.85
2022-12-04T18:13:57.109Z,11.57
2022-12-04T18:16:25.559Z,11.05
2022-12-04T18:19:02.564Z,13.13
2022-12-04T18:21:33.259Z,13.98
2022-12-04T18:24:05.144Z,16.40
2022-12-04T18:26:35.928Z,10.85
2022-12-04T18:29:03.184Z,11.13
2022-12-04T18:31:30.115Z,11.50
2022-12-04T18:33:57.403Z,9.23
2022-12-04T18:36:32.018Z,11.63
2022-12-04T18:39:06.682Z,10.27
2022-12-04T18:41:33.941Z,11.13
2022-12-04T18:44:04.277Z,12.70
2022-12-04T18:46:31.324Z,12.52
2022-12-04T18:49:01.444Z,10.85
2022-12-04T18:51:30.390Z,13.88
2022-12-04T18:54:00.385Z,10.85
2022-12-04T18:56:27.497Z,10.38
2022-12-04T18:59:06.515Z,11.48
2022-12-04T19:01:34.355Z,9.25
2022-12-04T19:04:07.320Z,11.75
2022-12-04T19:06:38.579Z,12.73
2022-12-04T19:09:08.269Z,9.57
2022-12-04T19:11:36.116Z,10.02
2022-12-04T19:14:10.247Z,12.95
2022-12-04T19:16:42.424Z,12.48
2022-12-04T19:19:15.636Z,10.00
2022-12-04T19:21:42.701Z,11.18
2022-12-04T19:24:10.646Z,9.10
2022-12-04T19:26:37.890Z,9.18
2022-12-04T19:29:05.829Z,14.40
2022-12-04T19:31:35.639Z,10.90
2022-12-04T19:34:06.559Z,12.63
2022-12-04T19:36:36.186Z,9.60
2022-12-04T19:39:05.207Z,9.20
2022-12-04T19:41:37.235Z,11.82
2022-12-04T19:44:19.998Z,9.20
2022-12-04T19:46:52.295Z,10.98
2022-12-04T19:49:19.521Z,9.50
2022-12-04T19:51:48.162Z,10.37
2022-12-04T19:54:16.325Z,10.23
2022-12-04T19:59:13.578Z,9.98
2022-12-04T20:01:40.865Z,9.93
2022-12-04T20:04:09.839Z,8.93
2022-12-04T20:06:39.913Z,9.15
2022-12-04T20:09:10.191Z,10.32
2022-12-04T20:11:39.693Z,11.00
2022-12-04T20:14:08.135Z,8.45
2022-12-04T20:16:36.110Z,9.20
2022-12-04T20:19:05.119Z,13.07
2022-12-04T20:21:34.831Z,10.45
2022-12-04T20:24:04.558Z,10.82
2022-12-04T20:26:37.432Z,11.23
2022-12-04T20:29:06.376Z,9.15
2022-12-04T20:31:38.974Z,9.10
2022-12-04T20:34:08.409Z,9.63
2022-12-04T20:36:42.724Z,9.55
2022-12-04T20:39:11.757Z,8.18
2022-12-04T20:41:39.539Z,8.68
2022-12-04T20:44:09.166Z,12.48
2022-12-04T20:46:39.274Z,9.30
2022-12-04T20:49:17.261Z,9.38
2022-12-04T20:51:48.034Z,9.55
2022-12-04T20:54:18.771Z,8.25
2022-12-04T20:56:48.622Z,9.25
2022-12-04T20:59:17.094Z,10.73
2022-12-04T21:01:44.151Z,9.95
2022-12-04T21:04:13.157Z,12.38
2022-12-04T21:06:41.430Z,10.38
2022-12-04T21:09:26.754Z,8.85
2022-12-04T21:11:55.295Z,10.05
2022-12-04T21:14:46.896Z,11.55
2022-12-04T21:17:19.416Z,9.07
2022-12-04T21:19:49.410Z,9.40
2022-12-04T21:22:17.830Z,8.80
2022-12-04T21:24:45.026Z,10.23
2022-12-04T21:27:18.927Z,8.77
2022-12-04T21:29:50.381Z,9.18
2022-12-04T21:32:20.723Z,8.93
2022-12-04T21:34:47.954Z,8.63
2022-12-04T21:37:16.022Z,8.93
2022-12-04T21:42:39.714Z,10.38
2022-12-04T21:45:10.119Z,9.95
2022-12-04T21:47:38.049Z,10.32
2022-12-04T21:50:07.812Z,7.65
2022-12-04T21:52:35.323Z,9.07
2022-12-04T21:55:05.309Z,8.82
2022-12-04T21:57:33.119Z,7.22
2022-12-04T22:00:00.550Z,8.88
2022-12-04T22:02:27.624Z,11.52
2022-12-04T22:04:54.897Z,8.60
2022-12-04T22:07:22.201Z,10.52
2022-12-04T22:09:49.425Z,10.00
2022-12-04T22:12:49.132Z,12.17
2022-12-04T22:15:06.163Z,8.52
2022-12-04T22:17:32.966Z,9.43
2022-12-04T22:20:02.553Z,8.57
2022-12-04T22:22:29.682Z,10.40
2022-12-04T22:24:56.563Z,8.98
2022-12-04T22:27:23.697Z,8.45
2022-12-04T22:29:51.564Z,8.10
2022-12-04T22:32:21.148Z,9.90
2022-12-04T22:34:49.296Z,8.07
2022-12-04T22:39:43.494Z,8.88
2022-12-04T22:42:10.293Z,10.40
2022-12-04T22:44:37.514Z,9.60
2022-12-04T22:47:07.508Z,8.00
2022-12-04T22:49:34.506Z,9.70
2022-12-04T22:52:01.420Z,8.35
2022-12-04T22:54:28.598Z,8.95
2022-12-04T22:56:57.983Z,10.45
2022-12-04T22:59:24.910Z,9.55
2022-12-04T23:01:52.051Z,8.73
2022-12-04T23:04:19.197Z,9.13
2022-12-04T23:06:46.102Z,8.57
2022-12-04T23:09:16.072Z,8.20
2022-12-04T23:11:50.359Z,9.07
2022-12-04T23:14:20.285Z,8.55
2022-12-04T23:16:50.221Z,9.68
2022-12-04T23:19:19.114Z,10.00
2022-12-04T23:21:47.300Z,10.90
2022-12-04T23:24:16.831Z,9.05
2022-12-04T23:26:46.432Z,8.77
2022-12-04T23:29:36.989Z,8.52
2022-12-04T23:32:01.966Z,9.65
2022-12-04T23:34:30.869Z,9.23
2022-12-04T23:36:58.042Z,10.13
2022-12-04T23:39:25.257Z,8.45
2022-12-04T23:41:54.320Z,9.30
2022-12-04T23:44:21.570Z,8.77
2022-12-04T23:46:48.787Z,8.95
2022-12-04T23:49:16.091Z,9.57
2022-12-04T23:51:43.328Z,11.07
2022-12-04T23:54:10.349Z,9.07
2022-12-04T23:56:37.495Z,11.02
2022-12-04T23:59:04.431Z,9.18
